createdAt,value
2022-11-12T00:01:04.570Z,103076.00
2022-11-12T00:03:33.587Z,103077.19
2022-11-12T00:06:01.292Z,103081.72
2022-11-12T00:08:29.464Z,103086.63
2022-11-12T00:10:57.448Z,103077.69
2022-11-12T00:13:25.093Z,103086.63
2022-11-12T00:15:52.775Z,103077.88
2022-11-12T00:18:20.499Z,103081.59
2022-11-12T00:20:49.725Z,103079.06
2022-11-12T00:23:17.375Z,103080.91
2022-11-12T00:25:45.089Z,103077.38
2022-11-12T00:28:12.879Z,103078.38
2022-11-12T00:30:41.461Z,103082.94
2022-11-12T00:33:09.187Z,103083.28
2022-11-12T00:35:37.994Z,103088.00
2022-11-12T00:38:06.984Z,103081.78
2022-11-12T00:40:34.660Z,103080.94
2022-11-12T00:43:02.305Z,103083.78
2022-11-12T00:45:29.984Z,103085.66
2022-11-12T00:47:58.112Z,103087.50
2022-11-12T00:50:25.927Z,103083.97
2022-11-12T00:52:53.908Z,103088.69
2022-11-12T00:55:22.986Z,103084.13
2022-11-12T00:57:50.692Z,103092.38
2022-11-12T01:00:20.015Z,103089.03
2022-11-12T01:02:51.375Z,103081.13
2022-11-12T01:05:20.289Z,103078.44
2022-11-12T01:07:54.699Z,103070.53
2022-11-12T01:10:24.948Z,103074.06
2022-11-12T01:12:52.681Z,103058.59
2022-11-12T01:15:20.276Z,103064.47
2022-11-12T01:17:47.953Z,103055.91
2022-11-12T01:20:15.658Z,103042.28
2022-11-12T01:22:43.342Z,103059.44
2022-11-12T01:25:11.127Z,103055.91
2022-11-12T01:27:40.123Z,103059.59
2022-11-12T01:30:08.865Z,103059.59
2022-11-12T01:32:37.868Z,103053.38
2022-11-12T01:35:06.677Z,103050.19
2022-11-12T01:37:34.369Z,103048.69
2022-11-12T01:40:02.037Z,103052.88
2022-11-12T01:42:32.547Z,103050.38
2022-11-12T01:45:01.588Z,103062.97
2022-11-12T01:47:31.303Z,103059.63
2022-11-12T01:50:06.577Z,103055.25
2022-11-12T01:52:37.730Z,103056.25
2022-11-12T01:55:10.882Z,103060.13
2022-11-12T01:57:42.952Z,103054.91
2022-11-12T02:00:14.484Z,103055.94
2022-11-12T02:02:46.272Z,103058.63
2022-11-12T02:05:15.944Z,103057.94
2022-11-12T02:07:46.921Z,103051.72
2022-11-12T02:10:15.258Z,103050.88
2022-11-12T02:13:01.421Z,103055.59
2022-11-12T02:15:30.702Z,103057.28
2022-11-12T02:17:58.525Z,103059.31
2022-11-12T02:20:26.459Z,103052.25
2022-11-12T02:22:55.481Z,103051.41
2022-11-12T02:25:25.585Z,103054.25
2022-11-12T02:27:55.362Z,103055.28
2022-11-12T02:30:33.560Z,103054.59
2022-11-12T02:33:01.657Z,103056.63
2022-11-12T02:35:29.297Z,103058.28
2022-11-12T02:37:58.781Z,103058.47
2022-11-12T02:40:26.543Z,103054.09
2022-11-12T02:42:54.234Z,103051.56
2022-11-12T02:45:22.173Z,103029.56
2022-11-12T02:47:49.846Z,103043.84
2022-11-12T02:50:18.312Z,103036.97
2022-11-12T02:52:46.004Z,103035.09
2022-11-12T02:55:14.993Z,103028.72
2022-11-12T02:57:42.801Z,103028.03
2022-11-12T03:00:13.053Z,103038.81
2022-11-12T03:02:42.718Z,103037.97
2022-11-12T03:05:11.120Z,103032.09
2022-11-12T03:07:38.977Z,103029.06
2022-11-12T03:10:07.778Z,103034.25
2022-11-12T03:12:36.800Z,103033.75
2022-11-12T03:15:04.757Z,103031.06
2022-11-12T03:17:32.515Z,103034.59
2022-11-12T03:20:00.240Z,103044.53
2022-11-12T03:22:27.873Z,103038.31
2022-11-12T03:24:55.555Z,103040.16
2022-11-12T03:27:23.180Z,103041.16
2022-11-12T03:29:52.205Z,103043.00
2022-11-12T03:32:19.854Z,103053.94
2022-11-12T03:34:49.617Z,103054.94
2022-11-12T03:37:19.533Z,103062.84
2022-11-12T03:39:47.172Z,103055.78
2022-11-12T03:42:14.897Z,103056.78
2022-11-12T03:44:42.522Z,103053.59
2022-11-12T03:47:11.626Z,103054.78
2022-11-12T03:49:39.341Z,103058.31
2022-11-12T03:52:06.971Z,103053.94
2022-11-12T03:54:34.624Z,103053.09
2022-11-12T03:57:02.297Z,103048.72
2022-11-12T03:59:29.963Z,103048.91
2022-11-12T04:01:57.615Z,103048.91
2022-11-12T04:04:47.057Z,103044.53
2022-11-12T04:07:32.413Z,103042.66
2022-11-12T04:10:00.162Z,103038.47
2022-11-12T04:12:45.429Z,103035.78
2022-11-12T04:15:13.112Z,103031.41
2022-11-12T04:17:58.560Z,103023.50
2022-11-12T04:20:45.169Z,103032.59
2022-11-12T04:23:12.833Z,103019.16
2022-11-12T04:25:58.305Z,103020.84
2022-11-12T04:28:26.306Z,103025.53
2022-11-12T04:30:53.177Z,103026.53
2022-11-12T04:33:20.877Z,103020.50
2022-11-12T04:35:49.918Z,103018.81
2022-11-12T04:38:17.577Z,103016.13
2022-11-12T04:41:02.894Z,103020.81
2022-11-12T04:43:48.510Z,103020.81
2022-11-12T04:46:16.203Z,103017.28
2022-11-12T04:48:43.856Z,103018.34
2022-11-12T04:51:26.981Z,103003.22
2022-11-12T04:53:54.859Z,103013.13
2022-11-12T04:56:22.579Z,103006.91
2022-11-12T04:58:50.247Z,103011.63
2022-11-12T05:01:17.965Z,103013.28
2022-11-12T05:03:45.669Z,103017.84
2022-11-12T05:06:28.577Z,103011.78
2022-11-12T05:08:56.549Z,103016.16
2022-11-12T05:11:24.206Z,103005.56
2022-11-12T05:13:51.897Z,103009.44
2022-11-12T05:16:19.529Z,103002.38
2022-11-12T05:18:47.161Z,102974.81
2022-11-12T05:21:34.594Z,102997.00
2022-11-12T05:24:04.977Z,102993.63
2022-11-12T05:26:32.635Z,102991.78
2022-11-12T05:29:02.164Z,102977.84
2022-11-12T05:31:32.857Z,102995.81
2022-11-12T05:34:00.762Z,103001.19
2022-11-12T05:36:29.765Z,102998.00
2022-11-12T05:38:57.541Z,102990.94
2022-11-12T05:41:25.212Z,102992.94
2022-11-12T05:43:52.936Z,102999.97
2022-11-12T05:46:20.833Z,102991.91
2022-11-12T05:48:48.588Z,102992.75
2022-11-12T05:51:16.613Z,102994.94
2022-11-12T05:53:45.697Z,102987.72
2022-11-12T05:56:13.375Z,102990.41
2022-11-12T05:58:41.034Z,102984.84
2022-11-12T06:01:08.775Z,102983.69
2022-11-12T06:03:36.451Z,102991.06
2022-11-12T06:06:04.138Z,102984.84
2022-11-12T06:08:31.798Z,102984.03
2022-11-12T06:11:00.805Z,102984.84
2022-11-12T06:13:28.703Z,102987.03
2022-11-12T06:15:57.060Z,102984.50
2022-11-12T06:18:25.966Z,102992.25
2022-11-12T06:21:11.709Z,102983.50
2022-11-12T06:23:39.453Z,102993.41
2022-11-12T06:26:08.582Z,102994.59
2022-11-12T06:28:36.306Z,103000.81
2022-11-12T06:31:04.459Z,103004.31
2022-11-12T06:33:32.221Z,103008.19
2022-11-12T06:36:03.057Z,103006.50
2022-11-12T06:38:31.401Z,103003.81
2022-11-12T06:40:59.104Z,103003.13
2022-11-12T06:43:30.464Z,102999.44
2022-11-12T06:46:00.865Z,103005.81
2022-11-12T06:48:29.854Z,103003.13
2022-11-12T06:50:58.082Z,103008.34
2022-11-12T06:53:26.225Z,103008.69
2022-11-12T06:55:53.898Z,103008.00
2022-11-12T06:58:21.518Z,103006.16
2022-11-12T07:00:50.557Z,103019.75
2022-11-12T07:03:18.266Z,103012.53
2022-11-12T07:05:45.899Z,103010.19
2022-11-12T07:08:13.602Z,103010.19
2022-11-12T07:10:41.232Z,103011.19
2022-11-12T07:13:08.904Z,103012.19
2022-11-12T07:15:36.540Z,103000.09
2022-11-12T07:18:05.717Z,103008.66
2022-11-12T07:20:33.409Z,103012.19
2022-11-12T07:23:01.686Z,103011.50
2022-11-12T07:25:29.333Z,103011.69
2022-11-12T07:27:56.990Z,103015.19
2022-11-12T07:30:24.653Z,103010.16
2022-11-12T07:32:52.346Z,103019.06
2022-11-12T07:35:21.365Z,103022.75
2022-11-12T07:37:49.029Z,103023.59
2022-11-12T07:40:16.993Z,103029.13
2022-11-12T07:42:44.627Z,103025.59
2022-11-12T07:45:12.359Z,103031.97
2022-11-12T07:47:40.024Z,103029.28
2022-11-12T07:50:08.290Z,103035.34
2022-11-12T07:52:37.289Z,103032.00
2022-11-12T07:55:07.008Z,103033.19
2022-11-12T07:57:34.911Z,103029.34
2022-11-12T08:00:02.700Z,103027.56
2022-11-12T08:02:30.557Z,103030.59
2022-11-12T08:04:58.246Z,103042.66
2022-11-12T08:07:26.080Z,103038.81
2022-11-12T08:09:55.387Z,103045.19
2022-11-12T08:12:23.157Z,103035.25
2022-11-12T08:14:50.871Z,103035.41
2022-11-12T08:17:18.499Z,103036.59
2022-11-12T08:19:46.227Z,103043.34
2022-11-12T08:22:13.994Z,103038.81
2022-11-12T08:24:41.690Z,103045.03
2022-11-12T08:27:10.696Z,103052.06
2022-11-12T08:29:38.371Z,103050.94
2022-11-12T08:32:06.541Z,103058.97
2022-11-12T08:34:35.909Z,103048.56
2022-11-12T08:37:03.764Z,103050.75
2022-11-12T08:39:31.448Z,103050.06
2022-11-12T08:41:59.167Z,103052.22
2022-11-12T08:44:28.276Z,103059.75
2022-11-12T08:46:55.949Z,103067.13
2022-11-12T08:49:23.591Z,103068.16
2022-11-12T08:51:51.328Z,103067.31
2022-11-12T08:54:19.176Z,103051.69
2022-11-12T08:56:46.918Z,103061.59
2022-11-12T08:59:14.556Z,103059.06
2022-11-12T09:01:43.891Z,103053.00
2022-11-12T09:04:11.778Z,103046.63
2022-11-12T09:06:39.496Z,103055.03
2022-11-12T09:09:07.310Z,103058.72
2022-11-12T09:11:34.958Z,103060.38
2022-11-12T09:14:02.657Z,103056.88
2022-11-12T09:16:30.408Z,103054.34
2022-11-12T09:18:59.412Z,103051.81
2022-11-12T09:21:27.165Z,103050.66
2022-11-12T09:23:55.551Z,103058.53
2022-11-12T09:26:23.487Z,103057.53
2022-11-12T09:28:52.346Z,103052.34
2022-11-12T09:31:20.045Z,103052.16
2022-11-12T09:33:47.760Z,103049.66
2022-11-12T09:36:17.637Z,103050.31
2022-11-12T09:38:45.269Z,103055.53
2022-11-12T09:41:21.674Z,103042.94
2022-11-12T09:43:52.230Z,103053.53
2022-11-12T09:46:29.540Z,103057.88
2022-11-12T09:49:03.778Z,103054.19
2022-11-12T09:51:35.396Z,103052.03
2022-11-12T09:54:05.704Z,103048.34
2022-11-12T09:56:33.407Z,103052.53
2022-11-12T09:59:01.207Z,103050.19
2022-11-12T10:01:44.141Z,103046.50
2022-11-12T10:04:37.577Z,103047.31
2022-11-12T10:07:13.861Z,103054.22
2022-11-12T10:09:52.517Z,103043.31
2022-11-12T10:12:33.511Z,103042.97
2022-11-12T10:15:35.978Z,103038.13
2022-11-12T10:18:09.261Z,103038.81
2022-11-12T10:20:42.731Z,103036.97
2022-11-12T10:23:19.474Z,103037.47
2022-11-12T10:25:49.910Z,103042.00
2022-11-12T10:28:28.249Z,103042.69
2022-11-12T10:31:02.457Z,103043.38
2022-11-12T10:33:32.753Z,103044.03
2022-11-12T10:36:16.235Z,103047.41
2022-11-12T10:38:49.041Z,103032.44
2022-11-12T10:41:23.189Z,103034.81
2022-11-12T10:43:59.385Z,103034.47
2022-11-12T10:46:29.835Z,103032.41
2022-11-12T10:49:01.059Z,103028.56
2022-11-12T10:51:32.222Z,103030.22
2022-11-12T10:54:29.603Z,103027.22
2022-11-12T10:56:57.335Z,103024.19
2022-11-12T10:59:25.702Z,103014.28
2022-11-12T11:01:58.511Z,103007.56
2022-11-12T11:04:31.121Z,103007.22
2022-11-12T11:07:01.721Z,103005.88
2022-11-12T11:09:31.489Z,103003.69
2022-11-12T11:11:59.337Z,103004.19
2022-11-12T11:14:33.455Z,103009.88
2022-11-12T11:17:04.645Z,103012.06
2022-11-12T11:19:38.811Z,103008.03
2022-11-12T11:22:39.185Z,103004.00
2022-11-12T11:25:21.643Z,103000.78
2022-11-12T11:28:02.605Z,103003.97
2022-11-12T11:30:30.351Z,102995.56
2022-11-12T11:33:22.356Z,102998.75
2022-11-12T11:36:03.792Z,103000.25
2022-11-12T11:38:41.206Z,102993.84
2022-11-12T11:41:30.195Z,102997.03
2022-11-12T11:44:13.756Z,102985.94
2022-11-12T11:46:52.343Z,102982.91
2022-11-12T11:49:36.244Z,102978.19
2022-11-12T11:52:15.800Z,102972.28
2022-11-12T11:55:00.049Z,102969.72
2022-11-12T11:57:34.539Z,102965.84
2022-11-12T12:00:12.553Z,102969.53
2022-11-12T12:03:05.629Z,102969.00
2022-11-12T12:05:42.954Z,102959.72
2022-11-12T12:08:14.031Z,102963.75
2022-11-12T12:11:07.718Z,102953.63
2022-11-12T12:13:52.613Z,102949.75
2022-11-12T12:16:46.086Z,102945.88
2022-11-12T12:19:27.624Z,102940.78
2022-11-12T12:21:57.997Z,102937.56
2022-11-12T12:24:30.870Z,102928.09
2022-11-12T12:27:03.671Z,102916.97
2022-11-12T12:29:38.322Z,102912.94
2022-11-12T12:32:15.029Z,102905.50
2022-11-12T12:34:44.422Z,102910.72
2022-11-12T12:37:18.242Z,102910.38
2022-11-12T12:39:53.330Z,102905.81
2022-11-12T12:42:24.037Z,102905.44
2022-11-12T12:45:04.745Z,102904.63
2022-11-12T12:47:37.721Z,102903.59
2022-11-12T12:50:08.179Z,102908.81
2022-11-12T12:53:03.069Z,102904.91
2022-11-12T12:55:42.578Z,102907.44
2022-11-12T12:58:26.939Z,102900.84
2022-11-12T13:01:00.621Z,102904.00
2022-11-12T13:03:55.972Z,102907.38
2022-11-12T13:06:29.259Z,102904.50
2022-11-12T13:09:01.521Z,102888.97
2022-11-12T13:12:06.127Z,102884.41
2022-11-12T13:14:52.520Z,102888.59
2022-11-12T13:17:48.399Z,102885.72
2022-11-12T13:20:40.782Z,102885.16
2022-11-12T13:23:33.191Z,102890.53
2022-11-12T13:26:45.484Z,102881.25
2022-11-12T13:29:24.474Z,102879.22
2022-11-12T13:32:27.731Z,102875.50
2022-11-12T13:35:16.140Z,102876.16
2022-11-12T13:37:45.665Z,102874.94
2022-11-12T13:40:16.968Z,102879.31
2022-11-12T13:42:52.198Z,102878.31
2022-11-12T13:45:22.546Z,102875.25
2022-11-12T13:47:50.453Z,102875.06
2022-11-12T13:50:21.864Z,102863.25
2022-11-12T13:52:50.704Z,102869.47
2022-11-12T13:55:20.577Z,102866.59
2022-11-12T13:57:51.932Z,102864.56
2022-11-12T14:00:28.085Z,102869.75
2022-11-12T14:02:58.763Z,102871.25
2022-11-12T14:05:28.083Z,102871.06
2022-11-12T14:08:17.808Z,102875.44
2022-11-12T14:10:55.627Z,102877.97
2022-11-12T14:13:43.915Z,102876.94
2022-11-12T14:16:28.138Z,102878.59
2022-11-12T14:19:15.156Z,102883.63
2022-11-12T14:21:42.883Z,102880.09
2022-11-12T14:24:13.375Z,102879.91
2022-11-12T14:26:44.463Z,102873.50
2022-11-12T14:29:19.354Z,102862.72
2022-11-12T14:31:47.540Z,102860.84
2022-11-12T14:34:22.792Z,102862.34
2022-11-12T14:36:50.731Z,102855.91
2022-11-12T14:39:18.461Z,102853.22
2022-11-12T14:41:49.118Z,102849.50
2022-11-12T14:44:22.243Z,102850.16
2022-11-12T14:46:53.749Z,102852.00
2022-11-12T14:49:29.039Z,102851.84
2022-11-12T14:52:04.532Z,102854.34
2022-11-12T14:54:36.134Z,102854.16
2022-11-12T14:57:05.697Z,102848.56
2022-11-12T14:59:35.064Z,102851.09
2022-11-12T15:05:00.205Z,102856.09
2022-11-12T15:07:30.486Z,102856.75
2022-11-12T15:09:58.214Z,102842.25
2022-11-12T15:12:28.237Z,102849.50
2022-11-12T15:15:08.352Z,102852.00
2022-11-12T15:17:38.102Z,102856.38
2022-11-12T15:20:15.309Z,102851.81
2022-11-12T15:22:50.735Z,102835.44
2022-11-12T15:25:22.926Z,102829.22
2022-11-12T15:27:51.180Z,102835.63
2022-11-12T15:30:24.446Z,102839.00
2022-11-12T15:33:08.475Z,102825.22
2022-11-12T15:35:38.039Z,102828.19
2022-11-12T15:38:08.982Z,102832.75
2022-11-12T15:40:44.026Z,102829.03
2022-11-12T15:43:15.486Z,102826.53
2022-11-12T15:45:44.664Z,102825.31
2022-11-12T15:48:13.520Z,102829.03
2022-11-12T15:50:41.186Z,102829.03
2022-11-12T15:53:08.881Z,102837.97
2022-11-12T15:55:38.558Z,102837.13
2022-11-12T15:58:07.770Z,102833.59
2022-11-12T16:00:37.473Z,102830.06
2022-11-12T16:03:14.768Z,102813.78
2022-11-12T16:05:42.709Z,102817.41
2022-11-12T16:08:10.714Z,102815.72
2022-11-12T16:10:39.317Z,102804.09
2022-11-12T16:13:08.359Z,102811.16
2022-11-12T16:15:36.089Z,102801.78
2022-11-12T16:18:03.809Z,102814.25
2022-11-12T16:20:34.672Z,102805.31
2022-11-12T16:23:02.741Z,102809.88
2022-11-12T16:25:32.905Z,102798.81
2022-11-12T16:28:01.864Z,102808.19
2022-11-12T16:30:32.449Z,102805.69
2022-11-12T16:33:01.983Z,102811.09
2022-11-12T16:35:30.782Z,102810.25
2022-11-12T16:37:59.822Z,102812.09
2022-11-12T16:40:29.814Z,102817.50
2022-11-12T16:42:57.862Z,102814.81
2022-11-12T16:45:33.018Z,102813.13
2022-11-12T16:48:00.820Z,102819.38
2022-11-12T16:50:29.761Z,102818.53
2022-11-12T16:52:58.843Z,102814.16
2022-11-12T16:55:26.531Z,102816.84
2022-11-12T16:57:54.188Z,102810.63
2022-11-12T17:00:22.145Z,102808.09
2022-11-12T17:02:53.377Z,102815.38
2022-11-12T17:05:23.706Z,102815.19
2022-11-12T17:07:56.106Z,102808.09
2022-11-12T17:10:25.387Z,102805.78
2022-11-12T17:12:53.280Z,102808.09
2022-11-12T17:15:21.229Z,102811.00
2022-11-12T17:17:48.916Z,102802.06
2022-11-12T17:20:17.325Z,102802.06
2022-11-12T17:22:45.022Z,102797.69
2022-11-12T17:25:12.738Z,102801.22
2022-11-12T17:27:41.733Z,102789.59
2022-11-12T17:30:11.285Z,102789.78
2022-11-12T17:32:39.065Z,102792.50
2022-11-12T17:35:07.854Z,102787.09
2022-11-12T17:37:35.611Z,102788.13
2022-11-12T17:40:03.355Z,102789.13
2022-11-12T17:42:31.078Z,102791.84
2022-11-12T17:45:00.065Z,102792.03
2022-11-12T17:47:28.682Z,102789.50
2022-11-12T17:49:56.340Z,102785.16
2022-11-12T17:52:24.132Z,102784.31
2022-11-12T17:54:51.825Z,102785.97
2022-11-12T17:57:19.519Z,102773.34
2022-11-12T17:59:47.137Z,102772.50
2022-11-12T18:02:16.151Z,102781.44
2022-11-12T18:04:43.835Z,102774.34
2022-11-12T18:07:11.569Z,102773.53
2022-11-12T18:09:39.253Z,102775.38
2022-11-12T18:12:07.176Z,102770.19
2022-11-12T18:14:35.025Z,102772.88
2022-11-12T18:17:02.993Z,102781.16
2022-11-12T18:19:32.075Z,102781.34
2022-11-12T18:22:02.070Z,102782.16
2022-11-12T18:24:29.773Z,102777.81
2022-11-12T18:26:57.438Z,102775.94
2022-11-12T18:29:25.123Z,102780.50
2022-11-12T18:31:52.782Z,102786.53
2022-11-12T18:34:20.481Z,102788.88
2022-11-12T18:36:49.513Z,102785.97
2022-11-12T18:39:17.216Z,102789.31
2022-11-12T18:41:44.917Z,102788.31
2022-11-12T18:44:12.625Z,102785.97
2022-11-12T18:46:40.305Z,102792.03
2022-11-12T18:49:08.135Z,102783.94
2022-11-12T18:51:36.205Z,102785.97
2022-11-12T18:54:05.653Z,102776.41
2022-11-12T18:56:33.387Z,102777.44
2022-11-12T18:59:01.083Z,102775.19
2022-11-12T19:01:28.799Z,102771.66
2022-11-12T19:03:57.521Z,102767.94
2022-11-12T19:06:26.385Z,102771.28
2022-11-12T19:08:59.628Z,102770.63
2022-11-12T19:11:28.674Z,102769.63
2022-11-12T19:13:57.171Z,102771.66
2022-11-12T19:16:25.345Z,102778.06
2022-11-12T19:18:53.545Z,102772.03
2022-11-12T19:21:23.513Z,102766.81
2022-11-12T19:23:54.776Z,102769.72
2022-11-12T19:26:24.125Z,102760.13
2022-11-12T19:28:53.267Z,102763.84
2022-11-12T19:31:23.206Z,102760.50
2022-11-12T19:33:51.735Z,102753.63
2022-11-12T19:36:22.166Z,102766.28
2022-11-12T19:38:54.600Z,102759.22
2022-11-12T19:41:22.337Z,102758.56
2022-11-12T19:43:50.109Z,102747.97
2022-11-12T19:46:19.367Z,102749.00
2022-11-12T19:48:47.217Z,102753.53
2022-11-12T19:51:15.109Z,102747.50
2022-11-12T19:53:45.365Z,102750.19
2022-11-12T19:56:16.894Z,102755.78
2022-11-12T19:58:46.225Z,102754.09
2022-11-12T20:01:16.033Z,102750.56
2022-11-12T20:03:45.151Z,102752.44
2022-11-12T20:06:14.474Z,102751.78
2022-11-12T20:08:42.162Z,102761.72
2022-11-12T20:11:10.028Z,102767.94
2022-11-12T20:13:37.768Z,102767.31
2022-11-12T20:16:09.382Z,102767.31
2022-11-12T20:18:37.069Z,102762.94
2022-11-12T20:21:07.753Z,102758.56
2022-11-12T20:23:36.499Z,102763.97
2022-11-12T20:26:05.733Z,102759.59
2022-11-12T20:28:34.057Z,102749.00
2022-11-12T20:31:03.641Z,102740.91
2022-11-12T20:33:31.465Z,102740.25
2022-11-12T20:36:04.481Z,102735.69
2022-11-12T20:38:36.488Z,102738.56
2022-11-12T20:41:05.672Z,102739.59
2022-11-12T20:43:33.878Z,102743.31
2022-11-12T20:46:01.961Z,102744.16
2022-11-12T20:48:30.275Z,102741.69
2022-11-12T20:51:22.532Z,102743.53
2022-11-12T20:53:58.886Z,102730.25
2022-11-12T20:56:29.296Z,102714.81
2022-11-12T20:58:57.665Z,102727.28
2022-11-12T21:01:27.269Z,102723.75
2022-11-12T21:03:55.333Z,102727.28
2022-11-12T21:06:24.630Z,102711.00
2022-11-12T21:08:54.160Z,102723.47
2022-11-12T21:11:23.491Z,102720.75
2022-11-12T21:13:51.407Z,102714.72
2022-11-12T21:16:19.119Z,102713.06
2022-11-12T21:18:46.884Z,102716.78
2022-11-12T21:21:16.616Z,102713.06
2022-11-12T21:23:45.682Z,102712.41
2022-11-12T21:26:16.027Z,102717.97
2022-11-12T21:28:44.751Z,102706.34
2022-11-12T21:31:14.171Z,102712.78
2022-11-12T21:33:41.882Z,102706.72
2022-11-12T21:36:15.803Z,102708.59
2022-11-12T21:38:44.524Z,102709.78
2022-11-12T21:41:15.666Z,102704.59
2022-11-12T21:43:44.775Z,102703.75
2022-11-12T21:46:15.506Z,102702.09
2022-11-12T21:48:43.510Z,102698.56
2022-11-12T21:51:13.597Z,102695.19
2022-11-12T21:53:43.120Z,102697.91
2022-11-12T21:56:12.565Z,102687.97
2022-11-12T21:58:41.686Z,102687.13
2022-11-12T22:01:10.777Z,102691.66
2022-11-12T22:03:39.345Z,102687.31
2022-11-12T22:06:08.101Z,102681.09
2022-11-12T22:08:36.079Z,102691.84
2022-11-12T22:11:05.241Z,102693.72
2022-11-12T22:13:33.615Z,102678.38
2022-11-12T22:16:07.362Z,102690.19
2022-11-12T22:18:35.353Z,102690.53
2022-11-12T22:21:05.358Z,102694.59
2022-11-12T22:23:35.857Z,102692.94
2022-11-12T22:26:04.432Z,102696.66
2022-11-12T22:28:32.219Z,102692.94
2022-11-12T22:31:06.235Z,102688.56
2022-11-12T22:33:34.551Z,102690.41
2022-11-12T22:36:03.086Z,102686.06
2022-11-12T22:38:35.330Z,102679.00
2022-11-12T22:41:04.570Z,102680.03
2022-11-12T22:43:32.686Z,102679.38
2022-11-12T22:46:10.585Z,102679.38
2022-11-12T22:48:38.494Z,102673.31
2022-11-12T22:51:07.959Z,102677.88
2022-11-12T22:53:35.894Z,102664.59
2022-11-12T22:56:04.050Z,102662.91
2022-11-12T22:58:31.866Z,102658.56
2022-11-12T23:00:59.621Z,102660.41
2022-11-12T23:03:31.270Z,102652.34
2022-11-12T23:05:59.408Z,102645.47
2022-11-12T23:08:27.740Z,102651.69
2022-11-12T23:10:55.797Z,102653.53
2022-11-12T23:13:26.703Z,102640.91
2022-11-12T23:15:54.554Z,102639.25
2022-11-12T23:18:22.189Z,102633.84
2022-11-12T23:20:51.406Z,102631.16
2022-11-12T23:23:19.211Z,102629.50
2022-11-12T23:25:46.855Z,102632.00
2022-11-12T23:28:14.516Z,102640.25
2022-11-12T23:30:48.826Z,102633.19
2022-11-12T23:33:16.495Z,102640.25
2022-11-12T23:35:44.166Z,102639.59
2022-11-12T23:38:13.170Z,102635.25
2022-11-12T23:40:40.840Z,102623.44
2022-11-12T23:43:08.562Z,102625.97
2022-11-12T23:45:37.138Z,102614.34
2022-11-12T23:48:05.296Z,102610.00
2022-11-12T23:50:32.978Z,102601.91
2022-11-12T23:53:00.673Z,102611.84
2022-11-12T23:55:29.706Z,102607.28
2022-11-12T23:57:57.341Z,102609.16
